sensor_id;sensor_type;location;lat;lon;timestamp;temperature;humidity
32107;DHT22;18622;51.998;10.440;2022-07-04T02:18:43;16.60;86.10
32107;DHT22;18622;51.998;10.440;2022-07-04T02:21:11;16.60;85.90
32107;DHT22;18622;51.998;10.440;2022-07-04T02:30:40;16.50;85.80
32107;DHT22;18622;51.998;10.440;2022-07-04T03:33:43;15.80;88.80
32107;DHT22;18622;51.998;10.440;2022-07-04T03:36:10;15.80;89.00
32107;DHT22;18622;51.998;10.440;2022-07-04T03:38:38;15.80;89.10
32107;DHT22;18622;51.998;10.440;2022-07-04T03:41:06;15.80;89.10
32107;DHT22;18622;51.998;10.440;2022-07-04T03:43:34;15.80;88.90
32107;DHT22;18622;51.998;10.440;2022-07-04T03:46:02;15.80;88.80
32107;DHT22;18622;51.998;10.440;2022-07-04T03:48:30;15.90;89.10
32107;DHT22;18622;51.998;10.440;2022-07-04T03:50:58;15.90;88.90
32107;DHT22;18622;51.998;10.440;2022-07-04T03:53:25;16.00;88.80
32107;DHT22;18622;51.998;10.440;2022-07-04T03:55:53;16.00;88.70
32107;DHT22;18622;51.998;10.440;2022-07-04T03:58:21;16.10;88.60
32107;DHT22;18622;51.998;10.440;2022-07-04T04:00:49;16.10;88.70
32107;DHT22;18622;51.998;10.440;2022-07-04T04:03:17;16.10;88.50
32107;DHT22;18622;51.998;10.440;2022-07-04T04:06:02;16.20;88.40
32107;DHT22;18622;51.998;10.440;2022-07-04T04:08:30;16.30;88.00
32107;DHT22;18622;51.998;10.440;2022-07-04T04:10:58;16.30;87.80
32107;DHT22;18622;51.998;10.440;2022-07-04T04:13:26;16.40;87.60
32107;DHT22;18622;51.998;10.440;2022-07-04T04:15:53;16.50;87.30
32107;DHT22;18622;51.998;10.440;2022-07-04T04:18:21;16.50;87.20
32107;DHT22;18622;51.998;10.440;2022-07-04T04:20:49;16.60;87.00
32107;DHT22;18622;51.998;10.440;2022-07-04T04:23:17;16.70;86.80
32107;DHT22;18622;51.998;10.440;2022-07-04T04:25:47;16.70;86.50
32107;DHT22;18622;51.998;10.440;2022-07-04T04:28:14;16.80;86.20
32107;DHT22;18622;51.998;10.440;2022-07-04T04:30:42;16.80;86.00
32107;DHT22;18622;51.998;10.440;2022-07-04T04:33:10;16.90;85.80
32107;DHT22;18622;51.998;10.440;2022-07-04T04:35:38;16.90;85.60
32107;DHT22;18622;51.998;10.440;2022-07-04T04:38:05;17.00;85.50
32107;DHT22;18622;51.998;10.440;2022-07-04T04:40:33;17.00;85.20
32107;DHT22;18622;51.998;10.440;2022-07-04T04:43:01;17.00;85.20
32107;DHT22;18622;51.998;10.440;2022-07-04T04:45:29;17.10;85.60
32107;DHT22;18622;51.998;10.440;2022-07-04T04:47:57;17.10;85.10
32107;DHT22;18622;51.998;10.440;2022-07-04T04:50:25;17.10;84.90
32107;DHT22;18622;51.998;10.440;2022-07-04T04:52:52;17.20;84.80
32107;DHT22;18622;51.998;10.440;2022-07-04T04:55:20;17.20;84.60
32107;DHT22;18622;51.998;10.440;2022-07-04T04:57:48;17.20;84.70
32107;DHT22;18622;51.998;10.440;2022-07-04T05:00:16;17.30;84.60
32107;DHT22;18622;51.998;10.440;2022-07-04T05:02:44;17.40;84.70
32107;DHT22;18622;51.998;10.440;2022-07-04T05:05:12;17.40;84.80
32107;DHT22;18622;51.998;10.440;2022-07-04T05:07:40;17.50;84.70
32107;DHT22;18622;51.998;10.440;2022-07-04T05:10:08;17.60;84.50
32107;DHT22;18622;51.998;10.440;2022-07-04T05:12:36;17.60;84.30
32107;DHT22;18622;51.998;10.440;2022-07-04T05:15:04;17.60;84.20
32107;DHT22;18622;51.998;10.440;2022-07-04T05:17:32;17.70;84.20
32107;DHT22;18622;51.998;10.440;2022-07-04T05:20:00;17.70;84.00
32107;DHT22;18622;51.998;10.440;2022-07-04T05:22:28;17.80;84.00
32107;DHT22;18622;51.998;10.440;2022-07-04T05:24:55;17.80;83.90
32107;DHT22;18622;51.998;10.440;2022-07-04T05:27:23;17.90;83.70
32107;DHT22;18622;51.998;10.440;2022-07-04T05:29:52;17.90;83.60
32107;DHT22;18622;51.998;10.440;2022-07-04T09:04:26;27.70;45.90
32107;DHT22;18622;51.998;10.440;2022-07-04T09:06:55;27.20;47.10
32107;DHT22;18622;51.998;10.440;2022-07-04T09:09:24;26.90;47.70
32107;DHT22;18622;51.998;10.440;2022-07-04T09:11:53;26.40;48.40
32107;DHT22;18622;51.998;10.440;2022-07-04T09:14:20;26.00;48.30
32107;DHT22;18622;51.998;10.440;2022-07-04T09:16:48;25.90;50.00
32107;DHT22;18622;51.998;10.440;2022-07-04T09:19:21;26.40;46.90
32107;DHT22;18622;51.998;10.440;2022-07-04T09:21:50;26.80;45.70
32107;DHT22;18622;51.998;10.440;2022-07-04T09:27:05;27.70;45.70
32107;DHT22;18622;51.998;10.440;2022-07-04T09:29:32;28.50;45.00
32107;DHT22;18622;51.998;10.440;2022-07-04T09:32:01;29.20;44.90
32107;DHT22;18622;51.998;10.440;2022-07-04T09:34:29;29.80;43.90
32107;DHT22;18622;51.998;10.440;2022-07-04T09:36:57;30.60;42.10
32107;DHT22;18622;51.998;10.440;2022-07-04T09:39:25;31.10;42.00
32107;DHT22;18622;51.998;10.440;2022-07-04T09:42:01;31.20;39.10
32107;DHT22;18622;51.998;10.440;2022-07-04T09:44:46;31.00;39.00
32107;DHT22;18622;51.998;10.440;2022-07-04T09:47:24;30.60;38.00
32107;DHT22;18622;51.998;10.440;2022-07-04T09:50:18;30.30;38.60
32107;DHT22;18622;51.998;10.440;2022-07-04T09:52:57;30.10;38.90
32107;DHT22;18622;51.998;10.440;2022-07-04T09:55:30;30.60;38.80
32107;DHT22;18622;51.998;10.440;2022-07-04T09:58:00;30.70;37.90
32107;DHT22;18622;51.998;10.440;2022-07-04T10:00:33;30.40;38.20
32107;DHT22;18622;51.998;10.440;2022-07-04T10:03:20;29.80;38.90
32107;DHT22;18622;51.998;10.440;2022-07-04T10:06:05;29.00;37.90
32107;DHT22;18622;51.998;10.440;2022-07-04T10:08:34;28.60;39.80
32107;DHT22;18622;51.998;10.440;2022-07-04T10:11:03;28.90;41.40
32107;DHT22;18622;51.998;10.440;2022-07-04T10:13:31;29.60;41.40
32107;DHT22;18622;51.998;10.440;2022-07-04T10:15:59;30.40;38.80
32107;DHT22;18622;51.998;10.440;2022-07-04T10:18:27;30.90;37.80
32107;DHT22;18622;51.998;10.440;2022-07-04T10:20:56;31.50;36.60
32107;DHT22;18622;51.998;10.440;2022-07-04T10:23:24;32.00;36.70
32107;DHT22;18622;51.998;10.440;2022-07-04T10:25:54;32.40;36.80
32107;DHT22;18622;51.998;10.440;2022-07-04T10:28:22;33.00;34.90
32107;DHT22;18622;51.998;10.440;2022-07-04T10:30:55;33.40;35.30
32107;DHT22;18622;51.998;10.440;2022-07-04T10:33:28;34.00;35.50
32107;DHT22;18622;51.998;10.440;2022-07-04T10:36:02;34.20;36.40
32107;DHT22;18622;51.998;10.440;2022-07-04T10:38:45;34.20;34.80
32107;DHT22;18622;51.998;10.440;2022-07-04T10:41:07;33.70;34.70
32107;DHT22;18622;51.998;10.440;2022-07-04T10:43:46;32.70;35.20
32107;DHT22;18622;51.998;10.440;2022-07-04T10:46:24;32.20;36.60
32107;DHT22;18622;51.998;10.440;2022-07-04T10:48:57;32.10;35.70
32107;DHT22;18622;51.998;10.440;2022-07-04T10:52:01;32.00;35.90
32107;DHT22;18622;51.998;10.440;2022-07-04T10:54:29;32.40;34.60
32107;DHT22;18622;51.998;10.440;2022-07-04T15:02:41;36.20;27.50
32107;DHT22;18622;51.998;10.440;2022-07-04T15:05:10;35.40;28.60
32107;DHT22;18622;51.998;10.440;2022-07-04T15:07:38;35.20;28.60
32107;DHT22;18622;51.998;10.440;2022-07-04T15:10:07;34.90;28.10
32107;DHT22;18622;51.998;10.440;2022-07-04T15:12:35;34.60;28.50
32107;DHT22;18622;51.998;10.440;2022-07-04T15:15:03;34.60;29.50
32107;DHT22;18622;51.998;10.440;2022-07-04T15:17:31;34.70;29.60
32107;DHT22;18622;51.998;10.440;2022-07-04T15:19:58;34.70;29.80
32107;DHT22;18622;51.998;10.440;2022-07-04T15:22:44;34.60;29.90
32107;DHT22;18622;51.998;10.440;2022-07-04T15:25:29;34.20;30.40
32107;DHT22;18622;51.998;10.440;2022-07-04T15:27:57;34.10;29.80
32107;DHT22;18622;51.998;10.440;2022-07-04T15:30:25;33.90;29.60
32107;DHT22;18622;51.998;10.440;2022-07-04T15:32:52;33.60;29.50
32107;DHT22;18622;51.998;10.440;2022-07-04T15:35:20;33.10;30.30
32107;DHT22;18622;51.998;10.440;2022-07-04T15:37:48;33.50;30.00
32107;DHT22;18622;51.998;10.440;2022-07-04T15:40:16;33.70;30.50
32107;DHT22;18622;51.998;10.440;2022-07-04T15:42:43;33.50;29.60
32107;DHT22;18622;51.998;10.440;2022-07-04T15:45:11;33.40;30.20
32107;DHT22;18622;51.998;10.440;2022-07-04T15:57:34;36.20;29.80
32107;DHT22;18622;51.998;10.440;2022-07-04T16:00:04;37.20;29.10
32107;DHT22;18622;51.998;10.440;2022-07-04T16:02:31;37.90;29.10
32107;DHT22;18622;51.998;10.440;2022-07-04T16:07:29;38.40;27.80
32107;DHT22;18622;51.998;10.440;2022-07-04T16:09:57;38.10;27.50
32107;DHT22;18622;51.998;10.440;2022-07-04T16:12:24;37.80;28.00
32107;DHT22;18622;51.998;10.440;2022-07-04T16:14:52;37.00;27.70
32107;DHT22;18622;51.998;10.440;2022-07-04T16:17:20;36.10;28.70
32107;DHT22;18622;51.998;10.440;2022-07-04T16:19:47;36.20;28.10
32107;DHT22;18622;51.998;10.440;2022-07-04T16:22:15;36.80;28.20
32107;DHT22;18622;51.998;10.440;2022-07-04T16:24:43;37.60;27.50
32107;DHT22;18622;51.998;10.440;2022-07-04T16:27:11;37.80;27.50
32107;DHT22;18622;51.998;10.440;2022-07-04T16:29:38;38.10;26.90
32107;DHT22;18622;51.998;10.440;2022-07-04T16:32:06;37.70;27.60
32107;DHT22;18622;51.998;10.440;2022-07-04T16:34:34;37.10;28.20
32107;DHT22;18622;51.998;10.440;2022-07-04T16:37:01;37.60;28.40
32107;DHT22;18622;51.998;10.440;2022-07-04T16:39:29;38.20;28.40
32107;DHT22;18622;51.998;10.440;2022-07-04T16:41:57;38.90;27.30
32107;DHT22;18622;51.998;10.440;2022-07-04T16:44:25;39.30;27.10
32107;DHT22;18622;51.998;10.440;2022-07-04T16:46:52;39.60;26.90
32107;DHT22;18622;51.998;10.440;2022-07-04T16:49:20;39.70;26.70
32107;DHT22;18622;51.998;10.440;2022-07-04T16:51:48;40.00;26.90
32107;DHT22;18622;51.998;10.440;2022-07-04T16:54:16;40.00;26.40
32107;DHT22;18622;51.998;10.440;2022-07-04T16:56:44;39.50;26.60
32107;DHT22;18622;51.998;10.440;2022-07-04T16:59:11;38.60;26.90
32107;DHT22;18622;51.998;10.440;2022-07-04T17:01:39;38.40;27.10
32107;DHT22;18622;51.998;10.440;2022-07-04T17:04:07;38.70;27.10
32107;DHT22;18622;51.998;10.440;2022-07-04T17:06:35;38.90;26.70
32107;DHT22;18622;51.998;10.440;2022-07-04T17:09:03;39.20;26.40
32107;DHT22;18622;51.998;10.440;2022-07-04T17:11:31;39.40;26.60
32107;DHT22;18622;51.998;10.440;2022-07-04T17:14:00;39.50;26.10
32107;DHT22;18622;51.998;10.440;2022-07-04T17:16:28;39.40;26.40
32107;DHT22;18622;51.998;10.440;2022-07-04T17:18:55;39.20;26.20
32107;DHT22;18622;51.998;10.440;2022-07-04T17:21:23;38.90;25.90
32107;DHT22;18622;51.998;10.440;2022-07-04T17:23:51;38.10;26.10
32107;DHT22;18622;51.998;10.440;2022-07-04T17:26:19;37.10;26.90
32107;DHT22;18622;51.998;10.440;2022-07-04T17:28:47;35.60;27.40
32107;DHT22;18622;51.998;10.440;2022-07-04T17:31:15;34.00;28.10
32107;DHT22;18622;51.998;10.440;2022-07-04T17:33:42;32.50;29.30
32107;DHT22;18622;51.998;10.440;2022-07-04T17:36:10;31.20;30.00
32107;DHT22;18622;51.998;10.440;2022-07-04T17:38:38;30.20;30.70
32107;DHT22;18622;51.998;10.440;2022-07-04T17:41:06;29.40;31.50
32107;DHT22;18622;51.998;10.440;2022-07-04T17:43:51;28.80;32.50
32107;DHT22;18622;51.998;10.440;2022-07-04T17:46:19;28.10;32.90
32107;DHT22;18622;51.998;10.440;2022-07-04T17:48:47;27.70;33.40
32107;DHT22;18622;51.998;10.440;2022-07-04T17:51:15;27.30;34.40
32107;DHT22;18622;51.998;10.440;2022-07-04T17:53:43;27.00;34.80
32107;DHT22;18622;51.998;10.440;2022-07-04T17:56:10;26.70;35.80
32107;DHT22;18622;51.998;10.440;2022-07-04T17:58:38;26.50;35.60
32107;DHT22;18622;51.998;10.440;2022-07-04T18:01:06;26.30;35.80
32107;DHT22;18622;51.998;10.440;2022-07-04T18:03:34;26.00;36.40
32107;DHT22;18622;51.998;10.440;2022-07-04T18:06:02;25.80;36.80
32107;DHT22;18622;51.998;10.440;2022-07-04T18:08:30;25.60;37.00
32107;DHT22;18622;51.998;10.440;2022-07-04T18:10:57;25.50;37.60
32107;DHT22;18622;51.998;10.440;2022-07-04T18:13:25;25.30;37.30
32107;DHT22;18622;51.998;10.440;2022-07-04T18:15:53;25.20;37.70
32107;DHT22;18622;51.998;10.440;2022-07-04T18:18:21;25.00;37.90
32107;DHT22;18622;51.998;10.440;2022-07-04T18:20:49;24.90;38.20
32107;DHT22;18622;51.998;10.440;2022-07-04T18:23:16;24.80;38.60
32107;DHT22;18622;51.998;10.440;2022-07-04T18:25:44;24.60;39.10
32107;DHT22;18622;51.998;10.440;2022-07-04T18:28:12;24.40;39.60
32107;DHT22;18622;51.998;10.440;2022-07-04T18:30:41;24.30;40.20
32107;DHT22;18622;51.998;10.440;2022-07-04T18:33:10;24.20;40.90
32107;DHT22;18622;51.998;10.440;2022-07-04T18:35:39;24.10;41.80
32107;DHT22;18622;51.998;10.440;2022-07-04T18:38:09;23.90;42.80
32107;DHT22;18622;51.998;10.440;2022-07-04T18:40:37;23.70;43.60
32107;DHT22;18622;51.998;10.440;2022-07-04T18:43:22;23.50;44.40
32107;DHT22;18622;51.998;10.440;2022-07-04T18:45:58;23.20;45.20
32107;DHT22;18622;51.998;10.440;2022-07-04T18:48:28;23.00;46.00
32107;DHT22;18622;51.998;10.440;2022-07-04T18:50:56;22.80;46.60
32107;DHT22;18622;51.998;10.440;2022-07-04T18:53:25;22.60;47.40
32107;DHT22;18622;51.998;10.440;2022-07-04T18:55:53;22.40;48.00
32107;DHT22;18622;51.998;10.440;2022-07-04T18:58:21;22.20;48.50
32107;DHT22;18622;51.998;10.440;2022-07-04T19:00:49;22.00;48.80
32107;DHT22;18622;51.998;10.440;2022-07-04T19:03:17;21.80;49.50
32107;DHT22;18622;51.998;10.440;2022-07-04T19:05:46;21.60;49.80
32107;DHT22;18622;51.998;10.440;2022-07-04T19:08:15;21.50;50.40
32107;DHT22;18622;51.998;10.440;2022-07-04T19:10:42;21.30;50.90
32107;DHT22;18622;51.998;10.440;2022-07-04T19:13:10;21.10;51.10
32107;DHT22;18622;51.998;10.440;2022-07-04T19:15:38;21.00;51.60
32107;DHT22;18622;51.998;10.440;2022-07-04T19:18:07;20.80;52.20
32107;DHT22;18622;51.998;10.440;2022-07-04T19:20:35;20.70;52.70
32107;DHT22;18622;51.998;10.440;2022-07-04T19:23:07;20.50;53.20
32107;DHT22;18622;51.998;10.440;2022-07-04T19:25:37;20.40;53.60
32107;DHT22;18622;51.998;10.440;2022-07-04T19:28:04;20.20;54.40
32107;DHT22;18622;51.998;10.440;2022-07-04T19:30:32;20.10;54.50
32107;DHT22;18622;51.998;10.440;2022-07-04T19:33:00;19.90;54.80
32107;DHT22;18622;51.998;10.440;2022-07-04T19:35:28;19.80;55.20
32107;DHT22;18622;51.998;10.440;2022-07-04T19:37:56;19.70;55.70
32107;DHT22;18622;51.998;10.440;2022-07-04T19:40:23;19.60;56.20
32107;DHT22;18622;51.998;10.440;2022-07-04T19:42:51;19.50;56.40
32107;DHT22;18622;51.998;10.440;2022-07-04T19:45:19;19.40;56.60
32107;DHT22;18622;51.998;10.440;2022-07-04T19:47:47;19.20;57.30
32107;DHT22;18622;51.998;10.440;2022-07-04T19:50:16;19.20;57.80
32107;DHT22;18622;51.998;10.440;2022-07-04T19:52:44;19.00;57.90
32107;DHT22;18622;51.998;10.440;2022-07-04T19:55:12;18.90;57.80
32107;DHT22;18622;51.998;10.440;2022-07-04T19:57:42;18.80;58.20
32107;DHT22;18622;51.998;10.440;2022-07-04T20:00:16;18.70;58.70
32107;DHT22;18622;51.998;10.440;2022-07-04T20:02:44;18.70;59.30
32107;DHT22;18622;51.998;10.440;2022-07-04T20:05:12;18.60;60.00
32107;DHT22;18622;51.998;10.440;2022-07-04T20:07:41;18.50;59.80
32107;DHT22;18622;51.998;10.440;2022-07-04T20:10:11;18.40;60.10
32107;DHT22;18622;51.998;10.440;2022-07-04T20:12:39;18.30;60.40
32107;DHT22;18622;51.998;10.440;2022-07-04T20:15:09;18.30;60.80
32107;DHT22;18622;51.998;10.440;2022-07-04T20:17:38;18.20;61.00
32107;DHT22;18622;51.998;10.440;2022-07-04T20:20:08;18.10;61.10
32107;DHT22;18622;51.998;10.440;2022-07-04T20:22:36;18.10;61.30
32107;DHT22;18622;51.998;10.440;2022-07-04T20:25:04;18.00;61.30
32107;DHT22;18622;51.998;10.440;2022-07-04T20:27:33;17.90;62.00
32107;DHT22;18622;51.998;10.440;2022-07-04T20:30:07;17.90;62.40
32107;DHT22;18622;51.998;10.440;2022-07-04T20:32:35;17.80;62.70
32107;DHT22;18622;51.998;10.440;2022-07-04T20:35:05;17.70;62.60
32107;DHT22;18622;51.998;10.440;2022-07-04T20:37:35;17.70;63.20
32107;DHT22;18622;51.998;10.440;2022-07-04T20:42:32;17.50;63.30
32107;DHT22;18622;51.998;10.440;2022-07-04T20:44:59;17.50;63.70
32107;DHT22;18622;51.998;10.440;2022-07-04T20:47:28;17.40;64.00
32107;DHT22;18622;51.998;10.440;2022-07-04T20:49:57;17.40;64.60
32107;DHT22;18622;51.998;10.440;2022-07-04T20:52:25;17.30;64.70
32107;DHT22;18622;51.998;10.440;2022-07-04T20:54:53;17.30;64.80
32107;DHT22;18622;51.998;10.440;2022-07-04T20:57:20;17.20;65.20
32107;DHT22;18622;51.998;10.440;2022-07-04T20:59:48;17.10;65.70
